Time;durP1;ratioP1;P1;durP2;ratioP2;P2;SDS_P1;SDS_P2;PMS_P1;PMS_P2;Temp;Humidity;BMP_temperature;BMP_pressure;BME280_temperature;BME280_humidity;BME280_pressure;Samples;Min_cycle;Max_cycle;Signal;HPM_P1;HPM_P2
2023/11/16 00:00:53;;;;;;;4.70;2.77;;;;;;;13.85;52.78;98899.22;6740424;29;20237;-84
2023/11/16 00:04:15;;;;;;;5.90;2.70;;;;;;;14.05;53.13;98925.09;6739738;29;20220;-86
2023/11/16 00:07:36;;;;;;;4.83;2.90;;;;;;;14.21;53.42;98999.66;6738867;29;20223;-85
2023/11/16 00:11:00;;;;;;;6.47;3.37;;;;;;;14.84;52.75;99053.44;6736069;29;20723;-85
2023/11/16 00:14:21;;;;;;;3.20;2.33;;;;;;;14.75;52.88;99049.38;6735139;29;20210;-85
2023/11/16 00:17:43;;;;;;;6.63;2.80;;;;;;;14.47;54.10;99056.34;6737100;29;20208;-85
2023/11/16 00:21:06;;;;;;;5.10;2.60;;;;;;;14.23;52.85;98960.38;6741198;29;20238;-86
2023/11/16 00:24:28;;;;;;;3.83;2.10;;;;;;;13.68;54.64;99001.94;6739626;29;20268;-84
2023/11/16 00:27:51;;;;;;;3.40;2.07;;;;;;;13.86;55.16;99052.69;6738981;29;20312;-85
2023/11/16 00:31:15;;;;;;;5.03;2.23;;;;;;;13.99;54.92;99031.72;6735101;29;20225;-85
2023/11/16 00:34:36;;;;;;;3.97;2.20;;;;;;;14.02;54.84;99036.72;6735849;29;20577;-84
2023/11/16 00:37:58;;;;;;;4.17;2.33;;;;;;;13.79;54.14;98932.66;6734841;29;20229;-85
2023/11/16 00:41:20;;;;;;;6.37;2.80;;;;;;;13.42;54.30;98891.09;6734524;29;20403;-85
2023/11/16 00:44:43;;;;;;;7.23;2.60;;;;;;;13.90;54.27;98999.69;6735092;29;20216;-86
2023/11/16 00:48:04;;;;;;;3.03;2.30;;;;;;;14.02;54.51;99023.16;6735218;29;20691;-85
2023/11/16 00:51:27;;;;;;;4.93;3.27;;;;;;;14.18;54.31;99005.47;6734626;29;20251;-85
2023/11/16 00:54:48;;;;;;;7.43;2.83;;;;;;;13.94;54.74;99000.91;6734954;29;20696;-89
2023/11/16 00:58:10;;;;;;;4.13;2.63;;;;;;;13.52;55.08;98956.41;6735144;29;20668;-85
2023/11/16 01:01:33;;;;;;;3.97;2.40;;;;;;;13.37;56.02;99007.38;6735306;29;20704;-85
2023/11/16 01:04:55;;;;;;;7.17;2.70;;;;;;;12.84;56.26;98929.34;6734230;29;20209;-85
2023/11/16 01:08:21;;;;;;;5.30;2.67;;;;;;;13.45;56.19;99003.59;6735284;29;20208;-85
2023/11/16 01:11:43;;;;;;;5.80;2.50;;;;;;;13.52;56.49;99028.75;6736176;29;20236;-85
2023/11/16 01:15:10;;;;;;;6.93;2.87;;;;;;;13.61;56.31;99036.41;6734943;29;20703;-86
2023/11/16 01:18:35;;;;;;;7.57;2.77;;;;;;;13.41;56.64;99024.88;6736732;29;20708;-85
2023/11/16 01:22:00;;;;;;;5.37;2.80;;;;;;;13.32;56.94;99030.72;6739692;29;20572;-85
2023/11/16 01:25:25;;;;;;;4.87;2.47;;;;;;;13.82;55.35;98986.41;6740037;29;20580;-85
2023/11/16 01:28:50;;;;;;;3.53;2.20;;;;;;;13.19;54.95;98925.22;6736971;29;20232;-86
2023/11/16 01:32:11;;;;;;;4.23;2.47;;;;;;;13.63;55.65;99036.19;6733700;29;20247;-85
2023/11/16 01:35:36;;;;;;;3.90;2.23;;;;;;;13.64;56.05;99025.09;6734113;29;20239;-86
2023/11/16 01:38:58;;;;;;;4.13;2.50;;;;;;;13.45;54.87;98895.25;6734900;29;20332;-84
2023/11/16 01:42:20;;;;;;;4.63;2.47;;;;;;;13.97;54.12;98914.53;6736968;29;20249;-84
2023/11/16 01:45:41;;;;;;;3.67;2.60;;;;;;;13.78;55.73;98979.78;6737169;29;20229;-85
2023/11/16 01:49:04;;;;;;;6.60;2.77;;;;;;;13.71;55.88;98979.84;6735391;29;20265;-85
2023/11/16 01:52:27;;;;;;;5.47;2.60;;;;;;;13.62;57.04;98988.47;6733570;29;20220;-85
2023/11/16 01:55:49;;;;;;;5.67;2.70;;;;;;;13.67;56.65;98967.78;6734223;29;20216;-84
2023/11/16 01:59:12;;;;;;;5.67;2.83;;;;;;;13.32;56.79;98914.28;6737158;29;20236;-85
2023/11/16 02:02:35;;;;;;;3.80;2.57;;;;;;;13.14;56.74;98877.16;6737523;29;20223;-86
2023/11/16 02:05:56;;;;;;;8.37;2.80;;;;;;;13.10;56.53;98877.81;6737843;29;20225;-85
2023/11/16 02:09:21;;;;;;;5.37;2.80;;;;;;;13.61;57.02;98998.47;6737808;29;20236;-86
2023/11/16 02:12:52;;;;;;;4.23;2.60;;;;;;;14.07;56.29;99003.50;6738288;29;20742;-85
2023/11/16 02:16:14;;;;;;;4.37;2.67;;;;;;;13.82;55.59;99006.22;6737018;29;20192;-84
2023/11/16 02:19:36;;;;;;;4.20;2.70;;;;;;;13.86;55.95;99020.16;6738007;29;20244;-85
2023/11/16 02:22:57;;;;;;;10.03;2.70;;;;;;;13.66;55.78;98974.25;6737772;29;20252;-85
2023/11/16 02:26:20;;;;;;;4.80;2.60;;;;;;;13.76;57.20;99023.34;6738349;29;20212;-85
2023/11/16 02:29:42;;;;;;;2.40;2.20;;;;;;;13.69;56.85;98986.53;6738152;29;20252;-85
2023/11/16 02:33:04;;;;;;;4.93;2.50;;;;;;;13.45;56.79;98923.16;6737992;29;20800;-84
2023/11/16 02:36:26;;;;;;;3.97;2.63;;;;;;;13.85;56.30;98967.00;6737741;29;20268;-85
2023/11/16 02:39:47;;;;;;;4.00;2.87;;;;;;;13.94;56.04;98985.50;6738564;29;20240;-85
2023/11/16 02:43:10;;;;;;;8.20;3.20;;;;;;;13.37;55.41;98906.34;6738961;29;20227;-86
2023/11/16 02:46:32;;;;;;;2.70;2.20;;;;;;;14.16;55.75;99008.41;6739616;29;20590;-86
2023/11/16 02:49:54;;;;;;;4.70;2.50;;;;;;;13.75;55.87;98966.69;6739599;29;20239;-85
2023/11/16 02:53:15;;;;;;;5.67;2.60;;;;;;;13.93;56.76;99019.03;6741170;29;20220;-85
2023/11/16 02:56:38;;;;;;;4.30;2.57;;;;;;;13.03;58.05;98953.63;6739626;29;20593;-88
2023/11/16 03:00:01;;;;;;;3.90;2.77;;;;;;;12.21;60.24;98881.59;6737708;29;20726;-84
2023/11/16 03:03:23;;;;;;;6.17;2.90;;;;;;;12.11;61.05;98894.72;6736856;29;20220;-86
2023/11/16 03:06:45;;;;;;;5.10;2.60;;;;;;;13.12;60.66;99011.06;6737320;29;20216;-87
2023/11/16 03:10:07;;;;;;;4.87;2.87;;;;;;;13.41;60.04;98996.94;6737284;29;20228;-85
2023/11/16 03:13:29;;;;;;;6.93;3.20;;;;;;;13.65;59.07;98994.28;6739107;29;20204;-85
2023/11/16 03:16:55;;;;;;;4.03;2.83;;;;;;;13.24;57.89;98825.22;6738526;29;20216;-84
2023/11/16 03:20:17;;;;;;;6.40;2.97;;;;;;;13.84;58.55;98971.59;6738942;29;20310;-85
2023/11/16 03:23:38;;;;;;;12.33;3.20;;;;;;;13.83;58.37;98961.81;6739030;29;20201;-85
2023/11/16 03:27:00;;;;;;;7.93;3.17;;;;;;;14.10;58.28;98976.75;6740763;29;20245;-85
2023/11/16 03:30:22;;;;;;;5.67;2.77;;;;;;;13.82;57.99;98930.34;6745398;29;20235;-87
2023/11/16 03:33:45;;;;;;;8.07;2.90;;;;;;;13.06;59.25;98871.16;6745536;29;20223;-86
2023/11/16 03:37:06;;;;;;;5.33;3.10;;;;;;;13.42;59.36;98906.50;6745177;29;20250;-85
2023/11/16 03:40:30;;;;;;;6.60;3.30;;;;;;;13.59;59.40;98962.66;6745140;29;20328;-84
2023/11/16 03:43:51;;;;;;;5.83;2.90;;;;;;;13.32;59.29;98888.06;6744811;29;20222;-85
2023/11/16 03:47:13;;;;;;;6.63;2.67;;;;;;;12.80;61.18;98938.97;6745934;29;20216;-85
2023/11/16 03:50:36;;;;;;;4.53;2.60;;;;;;;13.44;60.34;98931.47;6745762;29;20233;-89
2023/11/16 03:53:57;;;;;;;3.87;2.40;;;;;;;13.89;58.80;98917.56;6745041;29;20744;-85
2023/11/16 03:57:19;;;;;;;6.57;2.60;;;;;;;13.94;58.26;98942.13;6741437;29;20212;-85
2023/11/16 04:00:41;;;;;;;3.33;2.50;;;;;;;13.95;57.80;98915.81;6737888;29;20365;-86
2023/11/16 04:04:03;;;;;;;4.37;2.30;;;;;;;13.15;57.79;98802.19;6737077;29;20224;-86
2023/11/16 04:07:26;;;;;;;5.07;2.53;;;;;;;13.31;57.00;98816.00;6736729;29;20249;-87
2023/11/16 04:10:47;;;;;;;5.73;2.80;;;;;;;13.13;57.14;98805.13;6737861;29;20272;-85
2023/11/16 04:14:10;;;;;;;4.53;2.40;;;;;;;13.10;57.83;98819.06;6737640;29;20208;-85
2023/11/16 04:17:31;;;;;;;2.67;2.20;;;;;;;13.07;59.31;98951.31;6737188;29;20208;-85
2023/11/16 04:20:54;;;;;;;4.70;2.40;;;;;;;12.78;60.69;98949.16;6736940;29;20237;-85
2023/11/16 04:24:17;;;;;;;4.07;2.47;;;;;;;12.05;59.81;98784.78;6737415;29;20223;-86
2023/11/16 04:27:40;;;;;;;2.50;2.30;;;;;;;13.35;58.74;98943.66;6736923;29;20213;-84
2023/11/16 04:31:01;;;;;;;3.40;2.50;;;;;;;12.91;60.13;98940.97;6739487;29;20235;-85
2023/11/16 04:34:23;;;;;;;3.30;2.47;;;;;;;12.83;57.80;98804.06;6741224;29;20364;-85
2023/11/16 04:37:46;;;;;;;5.00;2.33;;;;;;;13.97;57.08;98919.13;6742201;29;20286;-85
2023/11/16 04:41:10;;;;;;;5.40;2.67;;;;;;;14.02;57.32;98922.84;6741977;29;20703;-86
2023/11/16 04:44:34;;;;;;;4.50;2.50;;;;;;;14.00;57.62;98926.81;6744917;29;20888;-86
2023/11/16 04:47:58;;;;;;;5.10;2.83;;;;;;;13.78;58.51;98929.13;6743776;29;20223;-88
2023/11/16 04:51:20;;;;;;;5.27;2.97;;;;;;;13.88;58.91;98925.91;6738968;29;20229;-86
2023/11/16 04:54:42;;;;;;;5.37;2.70;;;;;;;14.12;58.27;98935.88;6741907;29;20611;-85
2023/11/16 04:58:05;;;;;;;3.20;2.60;;;;;;;14.22;58.13;98930.81;6739003;29;20315;-86
2023/11/16 05:01:26;;;;;;;5.73;2.73;;;;;;;13.97;57.77;98924.56;6741694;29;20256;-85
2023/11/16 05:04:49;;;;;;;5.53;3.07;;;;;;;13.33;60.00;98930.31;6742578;29;20300;-89
2023/11/16 05:08:11;;;;;;;4.43;2.63;;;;;;;13.76;59.18;98917.66;6743464;29;20212;-87
2023/11/16 05:11:32;;;;;;;5.03;2.83;;;;;;;13.60;59.56;98923.66;6737808;29;20229;-86
2023/11/16 05:14:56;;;;;;;3.43;2.83;;;;;;;14.13;58.41;98921.25;6736774;29;20216;-85
2023/11/16 05:18:18;;;;;;;5.10;3.07;;;;;;;13.42;58.30;98781.94;6736688;29;20726;-85
2023/11/16 05:21:39;;;;;;;4.17;3.10;;;;;;;13.79;57.27;98845.94;6736201;29;20236;-84
2023/11/16 05:25:01;;;;;;;2.87;2.57;;;;;;;13.91;57.65;98911.88;6735889;29;20216;-85
2023/11/16 05:28:22;;;;;;;7.77;3.60;;;;;;;13.48;58.87;98901.06;6735221;29;20695;-86
2023/11/16 05:31:48;;;;;;;5.43;3.07;;;;;;;13.45;59.27;98895.25;6733904;29;20228;-85
2023/11/16 05:35:11;;;;;;;3.80;2.83;;;;;;;13.42;59.90;98876.72;6733711;29;20225;-85
2023/11/16 05:38:33;;;;;;;7.07;3.90;;;;;;;13.05;60.87;98891.19;6733401;29;20209;-86
2023/11/16 05:41:54;;;;;;;7.13;3.97;;;;;;;13.16;60.95;98891.28;6733328;29;20285;-84
2023/11/16 05:45:16;;;;;;;4.67;4.07;;;;;;;13.11;60.46;98861.34;6715376;29;20265;-84
2023/11/16 05:48:39;;;;;;;8.70;3.90;;;;;;;13.42;60.85;98901.09;6709893;29;20248;-84
2023/11/16 05:52:02;;;;;;;10.63;3.73;;;;;;;13.19;60.02;98849.41;6716464;29;20212;-87
2023/11/16 05:55:26;;;;;;;7.40;3.70;;;;;;;12.50;60.89;98767.47;6719265;29;20212;-83
2023/11/16 05:58:49;;;;;;;6.63;3.83;;;;;;;12.96;59.13;98740.91;6717757;29;20676;-85
2023/11/16 06:02:10;;;;;;;4.53;3.20;;;;;;;13.68;58.82;98852.13;6714480;29;20318;-83
2023/11/16 06:05:35;;;;;;;9.27;3.23;;;;;;;13.50;58.55;98825.81;6711559;29;20213;-84
2023/11/16 06:08:57;;;;;;;7.03;3.50;;;;;;;13.17;59.70;98854.22;6712044;29;20229;-83
2023/11/16 06:12:19;;;;;;;3.87;3.20;;;;;;;13.18;59.50;98794.47;6710982;29;20261;-84
2023/11/16 06:15:42;;;;;;;7.60;3.50;;;;;;;13.55;59.53;98835.97;6710073;29;20209;-84
2023/11/16 06:19:05;;;;;;;6.03;4.30;;;;;;;12.65;59.14;98681.44;6707811;29;20229;-86
2023/11/16 06:22:27;;;;;;;4.63;4.13;;;;;;;13.15;60.35;98829.25;6707794;29;20317;-84
2023/11/16 06:25:49;;;;;;;6.07;4.23;;;;;;;13.45;59.98;98822.13;6708137;29;20276;-83
2023/11/16 06:29:10;;;;;;;5.50;4.00;;;;;;;13.24;60.49;98831.47;6707352;29;20256;-86
2023/11/16 06:32:33;;;;;;;7.87;3.80;;;;;;;12.72;62.00;98818.31;6709017;29;20309;-84
2023/11/16 06:35:54;;;;;;;10.63;5.10;;;;;;;13.55;60.15;98822.41;6710026;29;20217;-84
2023/11/16 06:39:22;;;;;;;8.60;5.70;;;;;;;13.48;59.87;98841.47;6707387;29;20273;-84
2023/11/16 06:42:44;;;;;;;8.50;5.10;;;;;;;13.00;60.27;98790.84;6726805;29;20220;-83
2023/11/16 06:46:12;;;;;;;8.60;3.80;;;;;;;12.52;59.99;98695.88;6746687;29;20211;-84
2023/11/16 06:53:33;;;;;;;7.33;4.23;;;;;;;12.93;60.70;98825.22;6742881;29;20204;-84
2023/11/16 06:57:02;;;;;;;8.37;4.40;;;;;;;12.32;62.35;98789.00;6734650;29;20212;-85
2023/11/16 07:00:25;;;;;;;5.33;3.90;;;;;;;12.58;62.13;98815.91;6729073;29;20236;-81
2023/11/16 07:04:23;;;;;;;6.07;3.63;;;;;;;11.83;61.14;98659.16;6708751;29;20296;-84
2023/11/16 07:07:47;;;;;;;3.87;3.47;;;;;;;12.20;59.80;98666.38;6709492;29;20213;-86
2023/11/16 07:11:11;;;;;;;7.03;3.97;;;;;;;12.93;61.15;98788.16;6710717;29;20301;-84
2023/11/16 07:14:52;;;;;;;7.10;3.63;;;;;;;12.62;59.02;98696.22;6710245;29;20205;-85
2023/11/16 07:18:13;;;;;;;7.17;3.60;;;;;;;12.28;61.70;98744.53;6709294;29;20685;-84
2023/11/16 07:21:35;;;;;;;7.60;4.03;;;;;;;13.13;60.42;98796.16;6719821;29;20233;-84
2023/11/16 07:24:57;;;;;;;4.37;3.73;;;;;;;12.96;59.69;98754.44;6732682;29;20207;-82
2023/11/16 07:28:25;;;;;;;11.90;4.03;;;;;;;13.02;59.80;98764.38;6731914;29;20541;-86
2023/11/16 07:31:47;;;;;;;8.83;4.00;;;;;;;13.09;59.83;98771.41;6731336;29;20232;-83
2023/11/16 07:35:56;;;;;;;6.13;4.53;;;;;;;12.84;61.12;98769.72;6730552;29;20272;-86
2023/11/16 07:39:44;;;;;;;8.67;5.40;;;;;;;13.03;60.61;98783.13;6738257;23;20331;-85
2023/11/16 07:43:08;;;;;;;15.70;8.90;;;;;;;12.94;60.55;98767.34;6676139;29;20201;-86
2023/11/16 07:46:30;;;;;;;16.90;6.60;;;;;;;11.89;62.45;98679.91;6689153;29;20212;-87
2023/11/16 07:49:53;;;;;;;19.67;6.57;;;;;;;13.11;61.54;98765.78;6737337;29;20227;-87
2023/11/16 07:53:14;;;;;;;13.33;5.20;;;;;;;13.59;59.74;98764.03;6755778;29;20216;-85
2023/11/16 07:56:49;;;;;;;11.47;5.30;;;;;;;13.19;59.47;98720.31;6739961;29;20290;-87
2023/11/16 08:00:19;;;;;;;16.63;5.37;;;;;;;12.98;59.81;98690.94;6753931;29;20235;-87
2023/11/16 08:03:46;;;;;;;8.93;4.50;;;;;;;13.01;58.50;98649.91;6758410;29;20243;-88
2023/11/16 08:11:53;;;;;;;6.13;4.17;;;;;;;12.66;59.93;98721.78;6747484;29;20247;-87
2023/11/16 08:29:04;;;;;;;7.63;4.20;;;;;;;13.20;60.00;98719.25;6630093;29;20203;-87
2023/11/16 08:32:51;;;;;;;11.63;5.23;;;;;;;13.36;58.88;98678.06;6629542;29;20211;-87
2023/11/16 08:36:15;;;;;;;11.40;5.63;;;;;;;13.50;58.52;98640.78;6625081;29;20223;-84
2023/11/16 08:39:37;;;;;;;12.50;5.40;;;;;;;13.87;59.03;98678.44;6649249;29;20281;-87
2023/11/16 08:43:10;;;;;;;8.10;3.63;;;;;;;13.16;57.25;98550.19;6656491;29;20238;-86
2023/11/16 08:46:41;;;;;;;10.93;5.97;;;;;;;13.68;58.37;98647.00;6638223;29;20250;-85
2023/11/16 08:50:05;;;;;;;11.87;6.10;;;;;;;14.22;57.89;98675.91;6669158;29;20724;-86
2023/11/16 08:53:30;;;;;;;8.23;4.93;;;;;;;14.06;57.59;98665.66;6657123;29;20221;-86
2023/11/16 08:56:51;;;;;;;8.77;5.77;;;;;;;14.20;57.46;98659.84;6654762;29;20213;-86
2023/11/16 09:00:33;;;;;;;10.20;5.23;;;;;;;14.25;57.69;98659.16;6654776;29;20332;-86
2023/11/16 09:03:57;;;;;;;7.70;5.37;;;;;;;14.42;56.75;98654.72;6680482;29;20220;-86
2023/11/16 09:07:20;;;;;;;9.27;4.77;;;;;;;14.47;57.15;98668.41;6733967;29;20204;-88
2023/11/16 09:10:46;;;;;;;7.93;4.20;;;;;;;14.82;56.23;98655.72;6733589;29;20256;-86
2023/11/16 09:14:11;;;;;;;5.80;3.80;;;;;;;14.19;55.83;98529.94;6734221;29;20272;-85
2023/11/16 09:17:33;;;;;;;19.93;7.60;;;;;;;15.28;57.25;98655.69;6748791;29;20363;-86
2023/11/16 09:20:56;;;;;;;9.43;5.00;;;;;;;15.29;55.90;98662.78;6733198;29;20236;-86
2023/11/16 09:24:19;;;;;;;7.70;4.83;;;;;;;15.23;56.40;98664.53;6735955;29;20251;-86
2023/11/16 09:27:41;;;;;;;6.37;3.53;;;;;;;15.09;53.63;98578.97;6740983;29;20344;-84
2023/11/16 09:31:04;;;;;;;13.43;8.00;;;;;;;15.54;53.41;98642.44;6735686;29;20225;-88
2023/11/16 09:34:27;;;;;;;7.33;4.53;;;;;;;15.77;53.40;98636.94;6732484;29;20631;-84
2023/11/16 09:37:49;;;;;;;5.30;3.30;;;;;;;15.64;51.40;98631.75;6732994;29;20257;-86
2023/11/16 09:41:23;;;;;;;8.60;3.60;;;;;;;15.45;51.71;98562.34;6732736;29;20362;-88
2023/11/16 09:44:48;;;;;;;7.77;3.60;;;;;;;16.00;51.63;98603.38;6739253;29;20235;-88
2023/11/16 09:48:13;;;;;;;7.20;4.13;;;;;;;15.57;51.15;98507.97;6744842;29;20348;-87
2023/11/16 09:51:39;;;;;;;7.27;3.83;;;;;;;16.18;50.16;98582.22;6735494;29;20225;-88
2023/11/16 09:55:06;;;;;;;6.63;3.97;;;;;;;15.94;50.47;98575.28;6747540;29;20645;-89
2023/11/16 09:58:36;;;;;;;10.23;4.33;;;;;;;16.16;49.96;98562.59;6757461;29;20290;-87
2023/11/16 10:02:09;;;;;;;6.83;4.80;;;;;;;16.16;49.92;98554.41;6748167;29;20256;-89
2023/11/16 10:05:34;;;;;;;10.87;4.93;;;;;;;16.11;49.91;98554.34;6736085;29;20209;-84
2023/11/16 10:08:56;;;;;;;7.53;5.00;;;;;;;16.13;49.28;98535.91;6731073;29;20770;-87
2023/11/16 10:12:22;;;;;;;11.63;7.97;;;;;;;16.07;49.55;98534.16;6735097;29;20217;-87
2023/11/16 10:15:48;;;;;;;10.40;6.23;;;;;;;16.19;48.63;98525.91;6731363;29;20224;-89
2023/11/16 10:19:11;;;;;;;11.90;6.20;;;;;;;15.80;49.24;98492.34;6731335;29;20239;-88
2023/11/16 10:22:32;;;;;;;10.27;6.67;;;;;;;15.50;50.10;98499.97;6741216;29;20229;-87
2023/11/16 10:25:55;;;;;;;12.97;6.87;;;;;;;15.44;49.95;98500.94;6743130;29;20268;-86
2023/11/16 10:29:16;;;;;;;13.33;7.90;;;;;;;14.98;51.53;98489.41;6749406;29;20271;-88
2023/11/16 10:32:42;;;;;;;12.20;7.33;;;;;;;15.50;51.31;98474.69;6744509;29;20344;-82
2023/11/16 10:36:04;;;;;;;13.10;7.03;;;;;;;15.74;50.39;98460.72;6736791;29;20218;-84
2023/11/16 10:39:26;;;;;;;11.43;7.40;;;;;;;14.75;53.08;98454.19;6739325;29;20241;-85
2023/11/16 10:42:48;;;;;;;15.50;7.40;;;;;;;15.10;52.92;98439.41;6748038;29;20236;-83
2023/11/16 10:46:13;;;;;;;11.17;7.33;;;;;;;15.46;52.18;98422.72;6752715;29;20244;-89
2023/11/16 10:49:36;;;;;;;10.77;7.20;;;;;;;14.81;54.02;98396.22;6738097;29;20241;-86
2023/11/16 10:53:01;;;;;;;9.97;6.50;;;;;;;14.85;52.99;98389.22;6735778;29;20215;-85
2023/11/16 10:56:23;;;;;;;10.87;6.53;;;;;;;14.49;54.99;98378.72;6749341;29;20211;-88
2023/11/16 10:59:47;;;;;;;7.47;5.50;;;;;;;14.19;54.85;98370.81;6756631;29;20450;-85
2023/11/16 11:03:10;;;;;;;11.73;5.60;;;;;;;14.31;55.70;98374.31;6753303;29;20232;-85
2023/11/16 11:06:33;;;;;;;8.67;5.43;;;;;;;14.97;55.09;98352.84;6772666;29;20219;-87
2023/11/16 11:09:56;;;;;;;7.70;5.03;;;;;;;14.06;55.18;98249.03;6741935;29;20239;-86
2023/11/16 11:13:25;;;;;;;8.80;4.23;;;;;;;14.04;56.17;98334.38;6732170;29;20935;-85
2023/11/16 11:16:51;;;;;;;9.30;4.53;;;;;;;14.40;54.83;98321.31;6757220;29;20290;-85
2023/11/16 11:20:12;;;;;;;4.70;3.63;;;;;;;14.74;53.16;98297.84;6743774;29;20228;-83
2023/11/16 11:23:38;;;;;;;5.10;3.20;;;;;;;14.46;53.35;98298.66;6734084;29;20230;-87
2023/11/16 11:26:59;;;;;;;7.20;3.60;;;;;;;14.69;53.07;98249.72;6742680;29;20219;-85
2023/11/16 11:30:21;;;;;;;9.47;4.30;;;;;;;13.76;54.70;98231.31;6735366;29;20941;-85
2023/11/16 11:33:43;;;;;;;10.27;4.50;;;;;;;14.66;54.13;98262.97;6756254;29;20217;-84
2023/11/16 11:37:10;;;;;;;7.90;4.73;;;;;;;14.21;56.01;98216.03;6746820;29;20289;-85
2023/11/16 11:40:34;;;;;;;6.67;4.33;;;;;;;14.60;56.72;98239.50;6741126;29;20734;-85
2023/11/16 11:44:04;;;;;;;6.70;4.13;;;;;;;14.60;55.72;98225.94;6757353;29;20227;-87
2023/11/16 11:47:28;;;;;;;5.93;3.77;;;;;;;14.93;54.03;98156.22;6755980;29;20211;-88
2023/11/16 11:50:53;;;;;;;6.97;3.63;;;;;;;15.64;52.76;98210.50;6752833;29;20235;-84
2023/11/16 11:54:15;;;;;;;4.37;2.70;;;;;;;15.61;51.43;98192.00;6751705;29;20270;-83
2023/11/16 11:57:39;;;;;;;7.37;3.70;;;;;;;15.60;52.51;98205.84;6740187;29;20204;-87
2023/11/16 12:01:00;;;;;;;6.50;4.13;;;;;;;14.63;53.18;98179.34;6742768;29;20230;-85
2023/11/16 12:04:22;;;;;;;8.70;3.80;;;;;;;15.29;52.21;98190.16;6734431;29;20261;-83
2023/11/16 12:07:44;;;;;;;5.60;3.17;;;;;;;14.59;54.63;98195.31;6756358;29;20220;-82
2023/11/16 12:11:06;;;;;;;5.37;3.20;;;;;;;15.19;54.24;98190.00;6748742;29;20322;-84
2023/11/16 12:14:28;;;;;;;4.30;3.10;;;;;;;15.22;53.29;98187.63;6735127;29;20220;-85
2023/11/16 12:17:50;;;;;;;5.03;3.27;;;;;;;15.20;52.38;98178.06;6739253;29;20299;-83
2023/11/16 12:21:13;;;;;;;7.20;3.20;;;;;;;15.87;50.59;98177.66;6744134;29;20378;-85
2023/11/16 12:24:34;;;;;;;5.63;2.97;;;;;;;16.18;49.12;98176.94;6746069;29;20216;-84
2023/11/16 12:27:59;;;;;;;5.67;2.90;;;;;;;16.06;49.03;98170.00;6748267;29;20727;-85
2023/11/16 12:31:26;;;;;;;5.20;2.57;;;;;;;16.01;48.91;98169.94;6736550;29;20264;-86
2023/11/16 12:34:48;;;;;;;4.17;2.80;;;;;;;15.74;50.15;98174.53;6734593;29;20205;-86
2023/11/16 12:38:10;;;;;;;4.23;3.07;;;;;;;15.11;51.34;98136.94;6736096;29;20696;-88
2023/11/16 12:41:32;;;;;;;4.47;2.90;;;;;;;14.53;54.54;98116.78;6736462;29;20233;-87
2023/11/16 12:44:54;;;;;;;23.87;13.63;;;;;;;13.55;57.92;98077.56;6735658;29;20298;-85
2023/11/16 12:48:16;;;;;;;13.77;8.23;;;;;;;12.96;59.96;98124.78;6741713;29;20630;-85
2023/11/16 12:51:38;;;;;;;20.40;11.80;;;;;;;13.39;58.85;98121.66;6747751;29;20231;-86
2023/11/16 12:55:04;;;;;;;20.70;11.77;;;;;;;13.23;58.92;98084.50;6762860;29;20219;-86
2023/11/16 12:58:28;;;;;;;12.13;6.30;;;;;;;13.65;58.48;98126.53;6763130;29;21062;-85
2023/11/16 13:01:50;;;;;;;12.30;5.87;;;;;;;13.76;57.78;98141.91;6752484;29;20232;-85
2023/11/16 13:28:55;;;;;;;10.03;4.53;;;;;;;15.42;55.47;98127.34;7562727;23;20323;-85
2023/11/16 13:32:17;;;;;;;4.30;3.60;;;;;;;14.86;57.51;98119.47;6725006;29;20575;-87
2023/11/16 13:35:39;;;;;;;7.97;5.07;;;;;;;14.61;57.20;98117.19;6714091;29;20212;-86
2023/11/16 13:39:04;;;;;;;14.07;7.03;;;;;;;14.72;56.52;98064.72;6707288;29;20321;-85
2023/11/16 13:42:25;;;;;;;11.03;5.33;;;;;;;14.88;55.79;98098.34;6700928;29;20218;-85
2023/11/16 13:45:48;;;;;;;5.33;3.60;;;;;;;14.22;56.52;98012.41;6715534;29;20247;-86
2023/11/16 13:49:10;;;;;;;4.43;2.70;;;;;;;15.10;54.74;98072.84;6712034;29;20229;-86
2023/11/16 13:52:35;;;;;;;4.30;2.53;;;;;;;15.08;53.82;98079.59;6712584;29;20309;-87
2023/11/16 13:55:57;;;;;;;6.70;3.20;;;;;;;15.24;52.99;98067.88;6711813;29;20240;-86
2023/11/16 13:59:20;;;;;;;7.27;3.50;;;;;;;15.21;54.31;98071.13;6710299;29;20792;-86
2023/11/16 14:02:43;;;;;;;6.57;4.00;;;;;;;15.22;54.64;98078.19;6713365;29;20240;-86
2023/11/16 14:06:05;;;;;;;6.43;3.47;;;;;;;15.11;55.31;98062.84;6708109;29;20701;-86
2023/11/16 14:09:27;;;;;;;4.83;3.00;;;;;;;14.70;55.90;98052.47;6718081;29;20228;-86
2023/11/16 14:12:51;;;;;;;4.10;3.30;;;;;;;14.94;56.23;98057.47;6714476;29;20212;-85
2023/11/16 14:16:14;;;;;;;4.03;3.10;;;;;;;14.80;56.39;98041.78;6710531;29;20217;-86
2023/11/16 14:19:37;;;;;;;3.90;2.90;;;;;;;14.45;57.03;98057.53;6713042;29;20236;-87
2023/11/16 14:22:59;;;;;;;2.63;2.43;;;;;;;14.46;57.34;98048.31;6711574;29;20261;-86
2023/11/16 14:26:20;;;;;;;4.60;2.90;;;;;;;14.70;56.63;98055.19;6716372;29;20307;-85
2023/11/16 14:29:42;;;;;;;3.83;3.43;;;;;;;14.59;57.18;98061.53;6714363;29;20237;-86
2023/11/16 14:33:03;;;;;;;4.43;3.17;;;;;;;14.68;57.44;98062.78;6710809;29;20665;-86
2023/11/16 14:36:26;;;;;;;2.93;2.57;;;;;;;14.72;57.18;98053.03;6711363;29;20308;-86
2023/11/16 14:39:48;;;;;;;4.97;3.03;;;;;;;14.82;57.17;98062.13;6708219;29;20233;-84
2023/11/16 14:43:09;;;;;;;5.03;3.17;;;;;;;14.85;57.29;98047.25;6708541;29;20325;-86
2023/11/16 14:50:43;;;;;;;3.50;3.03;;;;;;;14.91;57.18;98029.97;6641842;29;20231;-85
2023/11/16 15:11:30;;;;;;;7.00;3.63;;;;;;;13.80;59.44;97950.72;6651484;29;20305;-85
2023/11/16 15:14:59;;;;;;;7.43;4.10;;;;;;;14.55;58.38;98025.13;6653807;29;20199;-85
2023/11/16 15:33:27;;;;;;;5.37;2.47;;;;;;;13.60;57.93;97961.19;6732936;29;20694;-86
2023/11/16 15:36:50;;;;;;;3.40;1.93;;;;;;;13.12;59.38;97977.09;6713712;29;20205;-84
2023/11/16 15:40:13;;;;;;;4.30;2.10;;;;;;;13.27;59.24;97972.00;6722901;29;20269;-84
2023/11/16 15:43:35;;;;;;;3.63;2.60;;;;;;;12.58;59.26;97915.38;6697857;29;20233;-84
2023/11/16 15:46:57;;;;;;;7.83;2.57;;;;;;;12.45;61.37;97961.59;6729080;29;20213;-84
2023/11/16 15:50:20;;;;;;;2.77;2.50;;;;;;;12.27;62.06;97940.13;6709013;29;20305;-84
2023/11/16 15:53:41;;;;;;;9.33;3.07;;;;;;;11.99;63.83;97932.72;6702449;29;20213;-85
2023/11/16 15:57:05;;;;;;;3.20;2.90;;;;;;;12.31;64.34;97930.47;6709295;29;20358;-83
2023/11/16 16:00:28;;;;;;;4.53;3.57;;;;;;;12.27;63.93;97921.22;6708004;29;20237;-87
2023/11/16 16:03:52;;;;;;;6.53;4.60;;;;;;;11.80;66.00;97895.28;6707478;29;20384;-86
2023/11/16 16:07:15;;;;;;;5.87;4.73;;;;;;;11.72;67.21;97901.84;6707719;29;20224;-82
2023/11/16 16:10:38;;;;;;;8.40;4.77;;;;;;;11.58;67.49;97883.38;6697040;29;20309;-85
2023/11/16 16:14:00;;;;;;;8.30;4.87;;;;;;;11.35;68.29;97859.06;6683073;29;20304;-84
2023/11/16 16:17:24;;;;;;;6.47;4.60;;;;;;;10.98;68.96;97807.13;6685315;29;20213;-84
2023/11/16 16:20:45;;;;;;;6.53;4.73;;;;;;;11.76;67.04;97845.47;6686602;29;20240;-87
2023/11/16 16:24:08;;;;;;;8.00;5.47;;;;;;;10.87;69.79;97842.97;6683259;29;20252;-85
2023/11/16 16:27:30;;;;;;;8.83;5.00;;;;;;;10.49;71.05;97822.81;6704226;29;20712;-85
2023/11/16 16:30:52;;;;;;;5.90;5.07;;;;;;;10.51;71.75;97823.41;6704573;29;20265;-86
2023/11/16 16:34:14;;;;;;;6.10;5.33;;;;;;;10.70;70.92;97809.63;6702492;29;20261;-82
2023/11/16 16:37:35;;;;;;;7.87;5.57;;;;;;;10.61;71.38;97789.47;6713366;29;20224;-86
2023/11/16 16:41:00;;;;;;;7.77;4.87;;;;;;;10.99;69.04;97786.41;6713154;29;20791;-85
2023/11/16 16:44:21;;;;;;;8.13;5.17;;;;;;;11.26;68.67;97806.47;6700317;29;20617;-85
2023/11/16 16:47:43;;;;;;;8.77;5.33;;;;;;;10.98;68.74;97793.66;6709739;29;20217;-85
2023/11/16 16:51:05;;;;;;;6.87;4.70;;;;;;;11.49;67.93;97791.13;6718323;29;20228;-85
2023/11/16 16:54:27;;;;;;;4.80;4.33;;;;;;;11.76;66.82;97769.88;6733648;29;20216;-84
2023/11/16 16:57:50;;;;;;;5.27;4.77;;;;;;;12.32;64.54;97778.88;6733657;29;20239;-85
2023/11/16 17:01:12;;;;;;;7.30;4.60;;;;;;;12.07;65.46;97754.06;6708286;29;20806;-86
2023/11/16 17:04:34;;;;;;;7.17;5.63;;;;;;;12.73;63.29;97742.59;6706399;29;20369;-84
2023/11/16 17:07:55;;;;;;;5.77;4.50;;;;;;;12.85;62.41;97738.75;6707189;29;20300;-85
2023/11/16 17:11:19;;;;;;;7.80;5.13;;;;;;;12.94;62.07;97725.63;6707606;29;20236;-85
2023/11/16 17:14:42;;;;;;;6.27;5.53;;;;;;;12.24;62.82;97719.81;6708081;29;20550;-84
2023/11/16 17:18:04;;;;;;;6.20;5.60;;;;;;;12.20;63.81;97732.16;6693074;29;20249;-83